Flight Track Log - Related Links

Times and Time Zones

All times are in EDT time to prevent confusion due to time zone crossing. See the UAL4336 flight status page for this flight to view local times or setup timezone preferences in your user account.

Time Position Orientation Groundspeed Altitude Reporting Facility
EDT Latitude Longitude Course Direction KTS MPH feet Rate Location/Type
Mon 09:59:29 AM 29.9661 -95.3456 90° East 138 159 700  Level Houston Center
Mon 09:59:48 AM 29.9567 -95.3344 134° Southeast 152 175 1,500 2,025 Climbing Houston Center
Mon 10:00:49 AM 29.9225 -95.2833 128° Southeast 205 236 3,400 1,694 Climbing Houston Center
Mon 10:01:13 AM 29.9081 -95.2644 131° Southeast 206 237 3,900 689 Climbing Houston Center
Mon 10:01:50 AM 29.8792 -95.2233 129° Southeast 246 283 4,100 968 Climbing Houston Center
Mon 10:02:00 AM 29.9833 -94.9973 90° East  Level FlightAware Approximate
Mon 10:02:15 AM 29.8653 -95.2022 127° Southeast 233 268 4,900  Level Houston Center
Mon 10:02:51 AM 29.8472 -95.1503 112° Southeast 271 312 6,700 2,323 Climbing Houston Center
Mon 10:03:00 AM 29.9834 -94.8853 90° East  Level FlightAware Approximate
Mon 10:03:17 AM 29.8444 -95.1219 96° East 269 310 7,300  Level Houston Center
Mon 10:03:53 AM 29.8472 -95.0611 87° East 300 345 8,700 2,129 Climbing Houston Center
Mon 10:04:00 AM 29.9834 -94.7733 90° East  Level FlightAware Approximate
Mon 10:04:19 AM 29.8550 -95.0289 74° East 295 339 9,500  Level Houston Center
Mon 10:05:21 AM 29.8739 -94.9333 77° East 305 351 10,700 1,258 Climbing Houston Center
Mon 10:06:23 AM 29.8950 -94.8225 78° East 347 399 12,100 1,597 Climbing Houston Center
Mon 10:07:25 AM 29.9214 -94.6881 77° East 358 412 14,000 1,632 Climbing Houston Center
Mon 10:08:28 AM 29.9433 -94.5747 77° East 362 417 15,500 1,488 Climbing Houston Center
Mon 10:09:30 AM 29.9672 -94.4564 77° East 369 425 17,100 1,500 Climbing Houston Center
Mon 10:10:32 AM 29.9894 -94.3400 78° East 372 428 18,600 919 Climbing Houston Center
Mon 10:11:34 AM 30.0081 -94.2178 80° East 386 444 19,000 194 Climbing Houston Center
Mon 10:12:36 AM 30.0244 -94.0833 82° East 421 484 19,000  Level Houston Center
Mon 10:13:38 AM 30.0447 -93.9178 82° East 435 501 19,000  Level Houston Center
Mon 10:14:40 AM 30.0606 -93.7842 82° East 426 490 19,000  Level Houston Center
Mon 10:15:43 AM 30.0758 -93.6525 82° East 421 484 19,000  Level Houston Center
Mon 10:16:45 AM 30.0914 -93.5214 82° East 418 481 19,000  Level Houston Center
Mon 10:17:47 AM 30.1064 -93.3892 82° East 421 484 19,000  Level Houston Center
Mon 10:18:49 AM 30.1253 -93.2319 82° East 418 481 19,000  Level Houston Center
Mon 10:19:51 AM 30.1411 -93.1006 82° East 418 481 19,000  Level Houston Center
Mon 10:20:53 AM 30.1664 -92.9694 77° East 421 484 19,000  Level Houston Center
Mon 10:21:55 AM 30.1939 -92.8397 76° East 418 481 19,000  Level Houston Center
Mon 10:22:57 AM 30.2250 -92.6819 77° East 421 484 19,000  Level Houston Center
Mon 10:24:00 AM 30.2508 -92.5508 77° East 420 483 19,000  Level Houston Center
Mon 10:25:02 AM 30.2747 -92.4203 78° East 419 482 19,000  Level Houston Center
Mon 10:26:04 AM 30.2972 -92.2981 78° East 418 481 19,000 -581 Level Houston Center
Mon 10:27:06 AM 30.3272 -92.1414 77° East 418 481 17,800 -1,500 Descending Houston Center
Mon 10:28:08 AM 30.3514 -92.0144 78° East 408 470 15,900 -1,839 Descending Houston Center
Mon 10:29:10 AM 30.3744 -91.8933 78° East 391 450 14,000 -1,887 Descending Houston Center
Mon 10:30:12 AM 30.3967 -91.7769 77° East 377 434 12,000 -1,440 Descending Houston Center
Mon 10:31:15 AM 30.4203 -91.6533 77° East 357 411 11,000 -912 Descending Houston Center
Mon 10:32:17 AM 30.4514 -91.5672 67° East 303 349 10,100 -1,887 Descending Houston Center
Mon 10:33:19 AM 30.5156 -91.5014 41° Northeast 284 327 7,100 -2,661 Descending Houston Center
Mon 10:34:21 AM 30.5733 -91.4442 40° Northeast 277 319 4,600 -1,839 Descending Houston Center
Mon 10:35:23 AM 30.6275 -91.3761 47° Northeast 273 314 3,300 -1,258 Descending Houston Center

Login

Don't have an account? Register now (free) for customized features, flight alerts, and more!